Time;durP1;ratioP1;P1;durP2;ratioP2;P2;SDS_P1;SDS_P2;PMS_P1;PMS_P2;Temp;Humidity;BMP_temperature;BMP_pressure;BME280_temperature;BME280_humidity;BME280_pressure;Samples;Min_cycle;Max_cycle;Signal;HPM_P1;HPM_P2
2021/06/10 00:01:41;;;;;;;11.25;7.10;;;;;;;;;;4435734;32;20065;-76
2021/06/10 00:04:08;;;;;;;7.53;6.68;;;;;;;;;;4434404;32;20045;-76
2021/06/10 00:06:34;;;;;;;10.82;6.57;;;;;;;;;;4433035;32;20065;-83
2021/06/10 00:09:00;;;;;;;7.03;6.30;;;;;;;;;;4433530;32;20082;-77
2021/06/10 00:11:26;;;;;;;10.15;5.87;;;;;;;;;;4433655;32;20038;-83
2021/06/10 00:13:52;;;;;;;7.30;6.15;;;;;;;;;;4433538;32;20086;-77
2021/06/10 00:16:19;;;;;;;9.00;6.55;;;;;;;;;;4443633;32;20029;-76
2021/06/10 00:18:48;;;;;;;9.93;7.62;;;;;;;;;;4438410;32;20081;-76
2021/06/10 00:21:14;;;;;;;8.10;6.85;;;;;;;;;;4438122;32;20437;-76
2021/06/10 00:23:41;;;;;;;9.55;6.97;;;;;;;;;;4438067;32;20104;-76
2021/06/10 00:26:07;;;;;;;8.88;7.18;;;;;;;;;;4440661;32;20091;-76
2021/06/10 00:28:33;;;;;;;8.98;7.18;;;;;;;;;;4438874;32;20148;-76
2021/06/10 00:31:02;;;;;;;10.48;7.35;;;;;;;;;;4439390;32;20037;-76
2021/06/10 00:33:29;;;;;;;9.07;7.80;;;;;;;;;;4437787;32;20485;-76
2021/06/10 00:35:55;;;;;;;9.73;7.60;;;;;;;;;;4441192;32;20055;-75
2021/06/10 00:38:21;;;;;;;11.43;8.07;;;;;;;;;;4441068;32;20045;-75
2021/06/10 00:40:47;;;;;;;9.48;8.20;;;;;;;;;;4437330;32;20086;-76
2021/06/10 00:43:13;;;;;;;9.05;8.05;;;;;;;;;;4439552;32;20167;-76
2021/06/10 00:45:40;;;;;;;9.82;8.10;;;;;;;;;;4438956;32;20029;-77
2021/06/10 00:48:07;;;;;;;12.50;8.40;;;;;;;;;;4438454;32;20090;-76
2021/06/10 00:50:44;;;;;;;10.27;8.45;;;;;;;;;;4441265;32;20061;-76
2021/06/10 00:53:21;;;;;;;10.90;8.70;;;;;;;;;;4434059;32;20002;-76
2021/06/10 00:55:51;;;;;;;10.40;9.35;;;;;;;;;;4438715;32;20110;-76
2021/06/10 00:58:18;;;;;;;13.30;9.02;;;;;;;;;;4439582;32;20008;-77
2021/06/10 01:00:44;;;;;;;15.40;9.43;;;;;;;;;;4438617;32;21043;-76
2021/06/10 01:03:10;;;;;;;10.23;9.10;;;;;;;;;;4448234;32;20033;-76
2021/06/10 01:05:38;;;;;;;11.73;9.13;;;;;;;;;;4446755;32;20441;-87
2021/06/10 01:08:23;;;;;;;10.70;8.02;;;;;;;;;;4444895;32;20124;-76
2021/06/10 01:10:58;;;;;;;10.38;8.88;;;;;;;;;;4442899;32;20042;-79
2021/06/10 01:13:31;;;;;;;10.70;9.38;;;;;;;;;;4445915;32;20053;-76
2021/06/10 01:15:59;;;;;;;14.80;9.40;;;;;;;;;;4447873;32;20048;-76
2021/06/10 01:18:26;;;;;;;11.80;8.90;;;;;;;;;;4439316;32;20038;-81
2021/06/10 01:20:53;;;;;;;12.00;9.80;;;;;;;;;;4447734;32;20570;-76
2021/06/10 01:23:22;;;;;;;12.23;10.15;;;;;;;;;;4445595;32;20130;-76
2021/06/10 01:25:54;;;;;;;13.73;10.32;;;;;;;;;;4451812;32;20072;-76
2021/06/10 01:28:29;;;;;;;19.55;11.20;;;;;;;;;;4446667;32;20414;-76
2021/06/10 01:30:58;;;;;;;13.50;11.77;;;;;;;;;;4450092;32;20033;-75
2021/06/10 01:33:39;;;;;;;16.80;12.75;;;;;;;;;;4440517;32;20102;-78
2021/06/10 01:36:13;;;;;;;16.15;12.30;;;;;;;;;;4436997;32;20136;-77
2021/06/10 01:38:41;;;;;;;16.55;11.23;;;;;;;;;;4439223;32;20287;-77
2021/06/10 01:41:07;;;;;;;13.98;11.18;;;;;;;;;;4433559;32;20037;-80
2021/06/10 01:43:36;;;;;;;13.45;10.90;;;;;;;;;;4437397;32;20061;-77
2021/06/10 01:46:02;;;;;;;11.18;9.98;;;;;;;;;;4435627;32;20060;-77
2021/06/10 01:48:28;;;;;;;11.00;8.68;;;;;;;;;;4434441;32;20042;-79
2021/06/10 01:50:56;;;;;;;10.65;9.55;;;;;;;;;;4437751;32;20029;-76
2021/06/10 01:53:23;;;;;;;10.15;8.98;;;;;;;;;;4438674;32;20109;-76
2021/06/10 01:55:49;;;;;;;11.15;9.48;;;;;;;;;;4441087;32;20025;-77
2021/06/10 01:58:16;;;;;;;8.85;7.90;;;;;;;;;;4438107;32;20056;-82
2021/06/10 02:00:43;;;;;;;10.40;9.18;;;;;;;;;;4437329;32;20399;-83
2021/06/10 02:03:09;;;;;;;11.07;9.35;;;;;;;;;;4435808;32;20033;-77
2021/06/10 02:05:37;;;;;;;11.40;8.95;;;;;;;;;;4437284;32;20034;-77
2021/06/10 02:08:03;;;;;;;13.25;9.32;;;;;;;;;;4433283;32;20125;-76
2021/06/10 02:10:29;;;;;;;10.45;8.50;;;;;;;;;;4441774;32;20066;-76
2021/06/10 02:12:56;;;;;;;13.20;10.30;;;;;;;;;;4444501;32;20041;-76
2021/06/10 02:15:22;;;;;;;14.15;10.75;;;;;;;;;;4449171;32;20049;-92
2021/06/10 02:17:53;;;;;;;14.95;12.00;;;;;;;;;;4438471;32;20115;-77
2021/06/10 02:20:20;;;;;;;20.90;14.73;;;;;;;;;;4446972;32;20035;-85
2021/06/10 02:22:46;;;;;;;18.77;12.43;;;;;;;;;;4444747;32;20064;-77
2021/06/10 02:25:13;;;;;;;14.52;10.50;;;;;;;;;;4451078;32;20002;-77
2021/06/10 02:27:39;;;;;;;13.70;12.02;;;;;;;;;;4454423;32;20036;-77
2021/06/10 02:30:07;;;;;;;12.25;10.27;;;;;;;;;;4448278;32;20029;-80
2021/06/10 02:32:33;;;;;;;12.65;10.63;;;;;;;;;;4435746;32;20084;-77
2021/06/10 02:35:02;;;;;;;10.57;9.10;;;;;;;;;;4436230;32;20114;-76
2021/06/10 02:37:29;;;;;;;12.15;9.50;;;;;;;;;;4440640;32;20013;-77
2021/06/10 02:39:56;;;;;;;10.60;8.68;;;;;;;;;;4434355;32;20063;-78
2021/06/10 02:42:22;;;;;;;15.75;11.18;;;;;;;;;;4440313;32;20040;-77
2021/06/10 02:44:51;;;;;;;12.30;9.48;;;;;;;;;;4440102;32;20025;-77
2021/06/10 02:47:18;;;;;;;13.02;10.23;;;;;;;;;;4441764;32;20038;-79
2021/06/10 02:49:46;;;;;;;12.48;9.68;;;;;;;;;;4436421;32;20118;-77
2021/06/10 02:52:13;;;;;;;9.68;8.65;;;;;;;;;;4436478;32;20034;-76
2021/06/10 02:54:40;;;;;;;14.43;10.15;;;;;;;;;;4433155;32;20033;-77
2021/06/10 02:57:07;;;;;;;13.40;10.38;;;;;;;;;;4438458;32;20033;-77
2021/06/10 02:59:35;;;;;;;12.48;9.40;;;;;;;;;;4438895;32;20071;-77
2021/06/10 03:02:02;;;;;;;15.18;10.43;;;;;;;;;;4433864;32;20086;-77
2021/06/10 03:04:28;;;;;;;12.10;10.70;;;;;;;;;;4436423;32;20568;-81
2021/06/10 03:06:55;;;;;;;17.05;11.80;;;;;;;;;;4431845;32;20205;-96
2021/06/10 03:09:22;;;;;;;15.90;12.35;;;;;;;;;;4433365;32;20373;-76
2021/06/10 03:11:48;;;;;;;16.58;12.95;;;;;;;;;;4432019;32;20056;-77
2021/06/10 03:14:16;;;;;;;30.98;13.43;;;;;;;;;;4434780;32;20045;-76
2021/06/10 03:16:42;;;;;;;18.75;12.15;;;;;;;;;;4434116;32;20042;-76
2021/06/10 03:19:09;;;;;;;15.63;12.07;;;;;;;;;;4430988;32;20100;-77
2021/06/10 03:21:36;;;;;;;14.25;11.20;;;;;;;;;;4436665;32;20030;-76
2021/06/10 03:24:02;;;;;;;14.40;11.20;;;;;;;;;;4431583;32;20038;-78
2021/06/10 03:26:29;;;;;;;17.23;11.05;;;;;;;;;;4431735;32;20395;-77
2021/06/10 03:28:56;;;;;;;17.10;11.65;;;;;;;;;;4426569;32;20025;-76
2021/06/10 03:31:23;;;;;;;17.30;11.65;;;;;;;;;;4428844;32;20030;-80
2021/06/10 03:33:51;;;;;;;19.55;12.15;;;;;;;;;;4444920;32;20045;-92
2021/06/10 03:36:18;;;;;;;18.52;12.35;;;;;;;;;;4433921;32;20067;-76
2021/06/10 03:38:44;;;;;;;19.00;12.37;;;;;;;;;;4432111;32;20589;-77
2021/06/10 03:41:11;;;;;;;14.68;10.70;;;;;;;;;;4438321;32;20060;-85
2021/06/10 03:43:38;;;;;;;15.63;10.98;;;;;;;;;;4439515;32;20082;-76
2021/06/10 03:46:09;;;;;;;15.90;10.35;;;;;;;;;;4438338;32;20041;-76
2021/06/10 03:48:38;;;;;;;13.60;10.20;;;;;;;;;;4434617;32;20060;-77
2021/06/10 03:51:14;;;;;;;10.70;9.50;;;;;;;;;;4433670;32;20094;-79
2021/06/10 03:53:40;;;;;;;11.50;9.23;;;;;;;;;;4441854;32;20060;-76
2021/06/10 03:56:07;;;;;;;13.00;9.32;;;;;;;;;;4436068;32;20049;-77
2021/06/10 03:58:33;;;;;;;9.75;8.75;;;;;;;;;;4432361;32;20053;-76
2021/06/10 04:00:59;;;;;;;9.18;8.30;;;;;;;;;;4433367;32;20116;-76
2021/06/10 04:03:26;;;;;;;10.23;9.15;;;;;;;;;;4432277;32;20387;-77
2021/06/10 04:05:52;;;;;;;10.90;8.68;;;;;;;;;;4435468;32;20112;-76
2021/06/10 04:08:19;;;;;;;10.95;8.23;;;;;;;;;;4443583;32;20133;-76
2021/06/10 04:10:45;;;;;;;10.80;8.40;;;;;;;;;;4433574;32;20782;-76
2021/06/10 04:13:11;;;;;;;11.05;8.30;;;;;;;;;;4434704;32;20045;-76
2021/06/10 04:15:37;;;;;;;10.27;8.73;;;;;;;;;;4432220;32;20053;-78
2021/06/10 04:18:03;;;;;;;8.48;7.68;;;;;;;;;;4433787;32;20065;-77
2021/06/10 04:20:30;;;;;;;11.50;7.78;;;;;;;;;;4429973;32;20054;-76
2021/06/10 04:22:56;;;;;;;10.52;8.65;;;;;;;;;;4433844;32;20042;-90
2021/06/10 04:25:22;;;;;;;9.02;8.10;;;;;;;;;;4439869;32;20117;-76
2021/06/10 04:27:48;;;;;;;8.93;8.00;;;;;;;;;;4437334;32;20645;-76
2021/06/10 04:30:15;;;;;;;7.97;6.97;;;;;;;;;;4434655;32;20096;-76
2021/06/10 04:32:44;;;;;;;8.52;7.68;;;;;;;;;;4430170;32;20029;-77
2021/06/10 04:35:11;;;;;;;9.05;8.05;;;;;;;;;;4430723;32;20034;-79
2021/06/10 04:37:37;;;;;;;8.82;7.78;;;;;;;;;;4430314;32;20057;-76
2021/06/10 04:40:04;;;;;;;8.75;7.85;;;;;;;;;;4430392;32;20121;-77
2021/06/10 04:42:30;;;;;;;8.90;8.02;;;;;;;;;;4428454;32;20037;-76
2021/06/10 04:44:56;;;;;;;9.23;7.82;;;;;;;;;;4428275;32;20033;-76
2021/06/10 04:47:22;;;;;;;9.63;7.18;;;;;;;;;;4430881;32;20071;-76
2021/06/10 04:49:49;;;;;;;11.20;8.73;;;;;;;;;;4428529;32;20060;-77
2021/06/10 04:52:15;;;;;;;8.57;7.68;;;;;;;;;;4429561;32;20037;-77
2021/06/10 04:54:41;;;;;;;17.30;8.93;;;;;;;;;;4430681;32;20050;-76
2021/06/10 04:57:07;;;;;;;11.68;8.93;;;;;;;;;;4431207;32;20063;-76
2021/06/10 04:59:34;;;;;;;8.05;7.07;;;;;;;;;;4430523;32;20057;-77
2021/06/10 05:02:01;;;;;;;8.10;6.87;;;;;;;;;;4431337;32;20045;-83
2021/06/10 05:04:28;;;;;;;8.48;7.05;;;;;;;;;;4431438;32;20070;-77
2021/06/10 05:06:54;;;;;;;7.18;6.20;;;;;;;;;;4429477;32;20113;-76
2021/06/10 05:09:20;;;;;;;7.60;6.80;;;;;;;;;;4426972;32;20069;-77
2021/06/10 05:11:46;;;;;;;8.07;6.87;;;;;;;;;;4430023;32;20046;-76
2021/06/10 05:14:12;;;;;;;8.95;6.30;;;;;;;;;;4430268;32;20037;-80
2021/06/10 05:16:39;;;;;;;7.20;6.50;;;;;;;;;;4430767;32;20025;-76
2021/06/10 05:19:05;;;;;;;7.30;6.07;;;;;;;;;;4434160;32;20089;-77
2021/06/10 05:21:31;;;;;;;8.40;7.47;;;;;;;;;;4430954;32;20037;-77
2021/06/10 05:23:57;;;;;;;7.85;7.05;;;;;;;;;;4429661;32;20129;-79
2021/06/10 05:26:24;;;;;;;7.60;6.55;;;;;;;;;;4428917;32;20276;-77
2021/06/10 05:28:53;;;;;;;10.82;7.90;;;;;;;;;;4434429;32;20442;-76
2021/06/10 05:31:21;;;;;;;8.52;7.40;;;;;;;;;;4435947;32;20005;-76
2021/06/10 05:33:47;;;;;;;9.50;6.50;;;;;;;;;;4433837;32;20034;-77
2021/06/10 05:36:14;;;;;;;9.85;7.87;;;;;;;;;;4434794;32;20055;-81
2021/06/10 05:38:40;;;;;;;15.38;8.07;;;;;;;;;;4433114;32;20046;-81
2021/06/10 05:41:06;;;;;;;8.60;6.85;;;;;;;;;;4436243;32;20083;-81
2021/06/10 05:43:34;;;;;;;12.25;8.57;;;;;;;;;;4431902;32;20042;-79
2021/06/10 05:46:00;;;;;;;9.77;5.82;;;;;;;;;;4436914;32;20642;-79
2021/06/10 05:48:26;;;;;;;10.13;7.10;;;;;;;;;;4433843;32;20046;-79
2021/06/10 05:50:53;;;;;;;8.95;7.95;;;;;;;;;;4436134;32;20110;-79
2021/06/10 05:53:19;;;;;;;8.27;7.45;;;;;;;;;;4428536;32;20410;-78
2021/06/10 05:55:46;;;;;;;9.65;8.02;;;;;;;;;;4432082;32;20049;-78
2021/06/10 05:58:13;;;;;;;11.38;8.05;;;;;;;;;;4426229;32;20465;-82
2021/06/10 06:00:40;;;;;;;8.57;7.70;;;;;;;;;;4429459;32;20068;-79
2021/06/10 06:03:07;;;;;;;6.70;5.68;;;;;;;;;;4431520;32;20037;-78
2021/06/10 06:05:33;;;;;;;6.75;6.05;;;;;;;;;;4437607;32;20033;-78
2021/06/10 06:08:00;;;;;;;5.95;5.05;;;;;;;;;;4438236;32;20037;-78
2021/06/10 06:10:27;;;;;;;6.45;5.85;;;;;;;;;;4436985;32;20063;-79
2021/06/10 06:12:56;;;;;;;13.10;6.62;;;;;;;;;;4436967;32;20033;-78
2021/06/10 06:15:22;;;;;;;8.48;6.68;;;;;;;;;;4430681;32;20057;-80
2021/06/10 06:17:49;;;;;;;7.30;5.70;;;;;;;;;;4434712;32;20030;-77
2021/06/10 06:20:15;;;;;;;9.27;5.93;;;;;;;;;;4436311;32;20679;-77
2021/06/10 06:22:44;;;;;;;7.30;6.60;;;;;;;;;;4433334;32;20038;-79
2021/06/10 06:25:12;;;;;;;10.15;7.07;;;;;;;;;;4438706;32;20037;-90
2021/06/10 06:27:38;;;;;;;9.45;6.20;;;;;;;;;;4428921;32;20599;-76
2021/06/10 06:30:05;;;;;;;7.80;5.82;;;;;;;;;;4427089;32;20065;-76
2021/06/10 06:32:33;;;;;;;7.85;6.90;;;;;;;;;;4428709;32;20091;-76
2021/06/10 06:34:59;;;;;;;7.47;6.55;;;;;;;;;;4427797;32;20090;-76
2021/06/10 06:37:25;;;;;;;6.65;6.05;;;;;;;;;;4427976;32;20045;-76
2021/06/10 06:39:51;;;;;;;12.75;6.62;;;;;;;;;;4426211;32;20460;-85
2021/06/10 06:42:18;;;;;;;8.40;6.60;;;;;;;;;;4414328;32;20606;-79
2021/06/10 06:44:44;;;;;;;9.95;6.30;;;;;;;;;;4409547;32;20038;-77
2021/06/10 06:47:10;;;;;;;8.32;6.60;;;;;;;;;;4431747;32;20064;-76
2021/06/10 06:49:37;;;;;;;8.95;7.57;;;;;;;;;;4424608;32;20065;-75
2021/06/10 06:52:03;;;;;;;9.93;7.97;;;;;;;;;;4424396;32;20030;-75
2021/06/10 06:54:29;;;;;;;13.00;8.15;;;;;;;;;;4433347;32;20116;-81
2021/06/10 06:56:56;;;;;;;11.25;7.72;;;;;;;;;;4422813;32;20093;-77
2021/06/10 06:59:22;;;;;;;7.93;7.15;;;;;;;;;;4426403;32;20057;-79
2021/06/10 07:01:48;;;;;;;7.93;7.15;;;;;;;;;;4423510;32;20050;-85
2021/06/10 07:04:15;;;;;;;8.75;7.28;;;;;;;;;;4422101;32;20117;-76
2021/06/10 07:06:41;;;;;;;8.27;7.10;;;;;;;;;;4419836;32;20468;-81
2021/06/10 07:09:07;;;;;;;7.93;6.10;;;;;;;;;;4422337;32;20377;-78
2021/06/10 07:11:34;;;;;;;7.57;6.82;;;;;;;;;;4424605;32;20482;-77
2021/06/10 07:14:01;;;;;;;9.52;6.82;;;;;;;;;;4425929;32;20662;-76
2021/06/10 07:16:27;;;;;;;7.47;6.43;;;;;;;;;;4423175;32;20467;-75
2021/06/10 07:18:53;;;;;;;11.02;6.07;;;;;;;;;;4426607;32;20041;-79
2021/06/10 07:21:20;;;;;;;6.50;5.45;;;;;;;;;;4430435;32;20089;-78
2021/06/10 07:23:46;;;;;;;8.23;5.10;;;;;;;;;;4434669;32;20041;-77
2021/06/10 07:26:12;;;;;;;8.60;7.35;;;;;;;;;;4434398;32;20472;-76
2021/06/10 07:28:38;;;;;;;7.18;5.80;;;;;;;;;;4437538;32;20064;-77
2021/06/10 07:31:05;;;;;;;7.15;5.93;;;;;;;;;;4429656;32;20073;-78
2021/06/10 07:33:31;;;;;;;7.97;7.28;;;;;;;;;;4427570;32;20082;-76
2021/06/10 07:35:57;;;;;;;6.60;5.87;;;;;;;;;;4428341;32;20280;-76
2021/06/10 07:38:23;;;;;;;6.85;6.05;;;;;;;;;;4428342;32;20461;-76
2021/06/10 07:40:49;;;;;;;7.57;6.78;;;;;;;;;;4417912;32;20069;-76
2021/06/10 07:43:16;;;;;;;8.95;6.37;;;;;;;;;;4428754;32;20029;-91
2021/06/10 07:45:42;;;;;;;7.40;6.70;;;;;;;;;;4429674;32;20037;-78
2021/06/10 07:48:09;;;;;;;10.32;6.70;;;;;;;;;;4427308;32;20037;-77
2021/06/10 07:50:35;;;;;;;6.97;5.70;;;;;;;;;;4430251;32;20045;-77
2021/06/10 07:53:01;;;;;;;7.57;6.00;;;;;;;;;;4429341;32;20109;-76
2021/06/10 07:55:28;;;;;;;7.60;6.90;;;;;;;;;;4429166;32;20105;-77
2021/06/10 07:57:55;;;;;;;7.87;7.07;;;;;;;;;;4428333;32;20496;-77
2021/06/10 08:00:22;;;;;;;9.68;6.30;;;;;;;;;;4427910;32;20482;-79
2021/06/10 08:02:48;;;;;;;8.38;6.72;;;;;;;;;;4426038;32;20461;-76
2021/06/10 08:05:14;;;;;;;8.38;6.62;;;;;;;;;;4418574;32;20085;-78
2021/06/10 08:07:44;;;;;;;10.55;6.55;;;;;;;;;;4424481;32;20109;-89
2021/06/10 08:10:11;;;;;;;8.48;6.30;;;;;;;;;;4414865;32;20097;-87
2021/06/10 08:12:38;;;;;;;7.72;5.55;;;;;;;;;;4412634;32;20018;-78
2021/06/10 08:15:04;;;;;;;7.93;6.25;;;;;;;;;;4415376;32;20061;-86
2021/06/10 08:17:33;;;;;;;7.25;6.55;;;;;;;;;;4413458;32;20056;-85
2021/06/10 08:19:59;;;;;;;9.82;6.43;;;;;;;;;;4417878;32;20117;-78
2021/06/10 08:22:26;;;;;;;7.20;6.55;;;;;;;;;;4413965;32;20050;-82
2021/06/10 08:24:52;;;;;;;6.85;5.82;;;;;;;;;;4417441;32;20156;-79
2021/06/10 08:27:18;;;;;;;9.88;7.05;;;;;;;;;;4412729;32;20069;-83
2021/06/10 08:29:44;;;;;;;7.70;6.87;;;;;;;;;;4414419;32;20148;-88
2021/06/10 08:32:10;;;;;;;7.53;6.82;;;;;;;;;;4416966;32;20045;-84
2021/06/10 08:34:37;;;;;;;10.35;6.90;;;;;;;;;;4416876;32;20030;-78
2021/06/10 08:37:03;;;;;;;6.90;6.00;;;;;;;;;;4415506;32;20091;-78
2021/06/10 08:39:29;;;;;;;6.97;6.28;;;;;;;;;;4426769;32;20096;-78
2021/06/10 08:41:56;;;;;;;7.80;7.00;;;;;;;;;;4420898;32;20033;-79
2021/06/10 08:44:23;;;;;;;8.02;7.12;;;;;;;;;;4422997;32;20045;-78
2021/06/10 08:46:50;;;;;;;8.52;6.45;;;;;;;;;;4430501;32;20034;-78
2021/06/10 08:49:18;;;;;;;6.68;5.97;;;;;;;;;;4427442;32;20122;-78
2021/06/10 08:51:44;;;;;;;6.80;6.10;;;;;;;;;;4422246;32;20049;-78
2021/06/10 08:54:11;;;;;;;7.50;6.68;;;;;;;;;;4437166;32;20033;-78
2021/06/10 08:56:40;;;;;;;8.25;6.62;;;;;;;;;;4431045;32;20082;-78
2021/06/10 08:59:07;;;;;;;7.12;5.85;;;;;;;;;;4430547;32;20057;-78
2021/06/10 09:01:34;;;;;;;7.70;6.50;;;;;;;;;;4419966;32;20098;-78
2021/06/10 09:04:00;;;;;;;6.62;6.03;;;;;;;;;;4420549;32;20615;-78
2021/06/10 09:06:26;;;;;;;8.55;6.53;;;;;;;;;;4428374;32;20068;-78
2021/06/10 09:08:57;;;;;;;7.15;6.45;;;;;;;;;;4424827;32;20422;-78
2021/06/10 09:11:31;;;;;;;6.35;5.75;;;;;;;;;;4438777;32;20040;-85
2021/06/10 09:13:58;;;;;;;8.85;6.22;;;;;;;;;;4421967;32;20038;-78
2021/06/10 09:16:28;;;;;;;9.52;5.82;;;;;;;;;;4422092;32;20046;-78
2021/06/10 09:19:02;;;;;;;7.55;5.70;;;;;;;;;;4424187;32;20077;-78
2021/06/10 09:21:33;;;;;;;7.18;6.47;;;;;;;;;;4430255;32;20041;-75
2021/06/10 09:24:18;;;;;;;6.72;5.87;;;;;;;;;;4428836;32;20076;-76
2021/06/10 09:26:45;;;;;;;6.82;6.12;;;;;;;;;;4429850;32;20112;-75
2021/06/10 09:29:12;;;;;;;7.55;6.62;;;;;;;;;;4428036;32;20724;-75
2021/06/10 09:31:40;;;;;;;6.97;6.32;;;;;;;;;;4424775;32;20584;-79
2021/06/10 09:34:09;;;;;;;9.00;6.65;;;;;;;;;;4430380;32;20113;-83
2021/06/10 09:36:46;;;;;;;7.80;6.57;;;;;;;;;;4430414;32;20073;-78
2021/06/10 09:39:14;;;;;;;7.47;6.43;;;;;;;;;;4425205;32;20042;-83
2021/06/10 09:41:59;;;;;;;7.57;5.65;;;;;;;;;;4426069;32;20034;-75
2021/06/10 09:44:45;;;;;;;8.10;6.22;;;;;;;;;;4413000;32;20104;-79
2021/06/10 09:47:12;;;;;;;12.23;6.60;;;;;;;;;;4416396;32;20430;-79
2021/06/10 09:49:39;;;;;;;8.80;6.40;;;;;;;;;;4414926;32;20033;-84
2021/06/10 09:52:05;;;;;;;6.43;5.82;;;;;;;;;;4428887;32;20078;-82
2021/06/10 09:54:39;;;;;;;6.75;6.07;;;;;;;;;;4414194;32;20046;-81
2021/06/10 09:57:05;;;;;;;6.95;6.00;;;;;;;;;;4416949;32;20133;-81
2021/06/10 09:59:42;;;;;;;8.32;6.70;;;;;;;;;;4417217;32;20041;-79
2021/06/10 10:02:21;;;;;;;7.75;7.05;;;;;;;;;;4414683;32;20041;-82
2021/06/10 10:05:08;;;;;;;7.05;6.30;;;;;;;;;;4425963;32;20037;-78
2021/06/10 10:07:36;;;;;;;10.00;7.25;;;;;;;;;;4429898;32;20115;-79
2021/06/10 10:10:03;;;;;;;13.02;6.97;;;;;;;;;;4428845;32;20057;-78
2021/06/10 10:12:30;;;;;;;7.57;6.87;;;;;;;;;;4421187;32;20060;-81
2021/06/10 10:14:57;;;;;;;6.10;5.53;;;;;;;;;;4423824;32;20041;-79
2021/06/10 10:17:23;;;;;;;9.88;6.82;;;;;;;;;;4425777;32;20029;-80
2021/06/10 10:19:50;;;;;;;9.93;6.60;;;;;;;;;;4422080;32;20052;-78
2021/06/10 10:22:16;;;;;;;7.35;6.65;;;;;;;;;;4420754;32;20080;-77
2021/06/10 10:24:43;;;;;;;8.10;7.07;;;;;;;;;;4426773;32;20037;-80
2021/06/10 10:27:12;;;;;;;9.02;6.87;;;;;;;;;;4428616;32;20101;-80
2021/06/10 10:29:40;;;;;;;7.45;6.47;;;;;;;;;;4418149;32;20059;-80
2021/06/10 10:32:07;;;;;;;7.57;6.50;;;;;;;;;;4424535;32;20495;-79
2021/06/10 10:34:35;;;;;;;7.45;6.68;;;;;;;;;;4418137;32;20029;-81
2021/06/10 10:37:16;;;;;;;6.07;5.47;;;;;;;;;;4422561;32;20042;-80
2021/06/10 10:39:42;;;;;;;7.85;6.72;;;;;;;;;;4430597;32;20122;-77
2021/06/10 10:42:08;;;;;;;8.70;7.22;;;;;;;;;;4427548;32;20092;-78
2021/06/10 10:44:36;;;;;;;6.90;6.20;;;;;;;;;;4430634;32;20065;-79
2021/06/10 10:47:09;;;;;;;6.78;6.03;;;;;;;;;;4436494;32;20082;-79
2021/06/10 10:49:40;;;;;;;6.43;5.20;;;;;;;;;;4430527;32;20091;-80
2021/06/10 10:52:16;;;;;;;7.10;6.37;;;;;;;;;;4433784;32;20133;-79
2021/06/10 10:54:43;;;;;;;6.78;5.95;;;;;;;;;;4420785;32;20084;-79
2021/06/10 10:57:30;;;;;;;8.68;6.90;;;;;;;;;;4420940;32;20053;-84
2021/06/10 10:59:56;;;;;;;8.20;6.72;;;;;;;;;;4419141;32;20843;-78
2021/06/10 11:02:23;;;;;;;7.47;6.62;;;;;;;;;;4422980;32;20038;-80
2021/06/10 11:04:56;;;;;;;8.57;7.10;;;;;;;;;;4422185;32;20030;-82
2021/06/10 11:07:34;;;;;;;8.77;6.87;;;;;;;;;;4424367;32;20079;-78
2021/06/10 11:10:01;;;;;;;8.27;6.75;;;;;;;;;;4428829;32;20079;-80
2021/06/10 11:13:00;;;;;;;6.85;6.20;;;;;;;;;;4431187;32;20105;-77
2021/06/10 11:15:26;;;;;;;9.38;6.82;;;;;;;;;;4381426;32;20068;-77
2021/06/10 11:18:06;;;;;;;10.50;5.85;;;;;;;;;;4428146;32;20042;-77
2021/06/10 11:20:38;;;;;;;6.70;6.10;;;;;;;;;;4427066;32;20111;-80
2021/06/10 11:23:10;;;;;;;7.90;6.07;;;;;;;;;;4429164;32;20049;-77
2021/06/10 11:25:44;;;;;;;8.68;6.55;;;;;;;;;;4428314;32;20693;-79
2021/06/10 11:28:15;;;;;;;7.20;6.43;;;;;;;;;;4423815;32;20041;-81
2021/06/10 11:30:42;;;;;;;7.00;6.37;;;;;;;;;;4420342;32;20056;-82
2021/06/10 11:33:10;;;;;;;9.20;6.25;;;;;;;;;;4424428;32;20071;-78
2021/06/10 11:35:37;;;;;;;8.45;6.80;;;;;;;;;;4426434;32;20034;-78
2021/06/10 11:38:10;;;;;;;7.47;6.78;;;;;;;;;;4424889;32;20130;-79
2021/06/10 11:40:36;;;;;;;8.35;6.43;;;;;;;;;;4426375;32;20102;-85
2021/06/10 11:43:09;;;;;;;10.57;7.37;;;;;;;;;;4425514;32;20186;-86
2021/06/10 11:45:36;;;;;;;7.32;6.50;;;;;;;;;;4426938;32;20107;-79
2021/06/10 11:48:03;;;;;;;8.27;6.90;;;;;;;;;;4424422;32;20154;-78
2021/06/10 11:50:29;;;;;;;7.78;6.90;;;;;;;;;;4425629;32;20079;-87
2021/06/10 11:52:58;;;;;;;7.55;6.82;;;;;;;;;;4425495;32;20080;-77
2021/06/10 11:55:27;;;;;;;8.57;6.65;;;;;;;;;;4424436;32;20087;-78
2021/06/10 11:58:22;;;;;;;7.75;6.95;;;;;;;;;;4424355;32;20103;-78
2021/06/10 12:00:48;;;;;;;8.90;6.72;;;;;;;;;;4425007;32;20038;-80
2021/06/10 12:03:16;;;;;;;10.43;7.25;;;;;;;;;;4430306;32;20100;-78
2021/06/10 12:06:03;;;;;;;8.88;6.87;;;;;;;;;;4434088;32;20053;-77
2021/06/10 12:08:31;;;;;;;8.45;7.00;;;;;;;;;;4438331;32;20485;-77
2021/06/10 12:11:02;;;;;;;7.37;6.65;;;;;;;;;;4436018;32;20262;-77
2021/06/10 12:13:41;;;;;;;10.20;7.37;;;;;;;;;;4437547;32;20064;-78
2021/06/10 12:16:08;;;;;;;8.68;7.65;;;;;;;;;;4436400;32;20042;-80
2021/06/10 12:18:35;;;;;;;9.05;7.32;;;;;;;;;;4438825;32;20485;-78
2021/06/10 12:21:06;;;;;;;8.95;6.30;;;;;;;;;;4435481;32;20061;-78
2021/06/10 12:23:39;;;;;;;7.87;6.82;;;;;;;;;;4438704;32;20067;-78
2021/06/10 12:26:05;;;;;;;8.07;7.22;;;;;;;;;;4435545;32;20096;-78
2021/06/10 12:28:40;;;;;;;8.10;6.68;;;;;;;;;;4437332;32;20063;-78
2021/06/10 12:31:09;;;;;;;7.82;6.95;;;;;;;;;;4430155;32;20585;-78
2021/06/10 12:33:36;;;;;;;8.27;6.95;;;;;;;;;;4426037;32;20060;-78
2021/06/10 12:36:04;;;;;;;9.60;6.82;;;;;;;;;;4424930;32;20064;-78
2021/06/10 12:38:37;;;;;;;8.00;6.10;;;;;;;;;;4426120;32;20037;-77
2021/06/10 12:41:29;;;;;;;7.87;6.78;;;;;;;;;;4415789;32;20426;-82
2021/06/10 12:44:10;;;;;;;6.82;6.10;;;;;;;;;;4411704;32;20125;-78
2021/06/10 12:46:50;;;;;;;8.30;6.28;;;;;;;;;;4431592;32;20117;-78
2021/06/10 12:49:18;;;;;;;7.35;6.53;;;;;;;;;;4426967;32;20346;-78
2021/06/10 12:51:54;;;;;;;8.82;6.18;;;;;;;;;;4418358;32;20061;-79
2021/06/10 12:54:29;;;;;;;6.60;6.00;;;;;;;;;;4432651;32;20371;-78
2021/06/10 12:56:56;;;;;;;6.95;5.45;;;;;;;;;;4429726;32;20099;-80
2021/06/10 12:59:35;;;;;;;10.35;6.70;;;;;;;;;;4426486;32;20100;-77
2021/06/10 13:02:06;;;;;;;9.18;5.95;;;;;;;;;;4426979;32;20026;-77
2021/06/10 13:04:33;;;;;;;7.57;6.05;;;;;;;;;;4427462;32;20120;-80
2021/06/10 13:06:59;;;;;;;7.03;6.32;;;;;;;;;;4430921;32;20048;-79
2021/06/10 13:09:26;;;;;;;7.55;6.72;;;;;;;;;;4435430;32;20143;-77
2021/06/10 13:12:11;;;;;;;8.90;5.80;;;;;;;;;;4427620;32;20560;-78
2021/06/10 13:14:37;;;;;;;8.20;6.20;;;;;;;;;;4424846;32;20045;-77
2021/06/10 13:17:03;;;;;;;5.45;4.95;;;;;;;;;;4434734;32;20060;-77
2021/06/10 13:19:29;;;;;;;6.40;4.35;;;;;;;;;;4427289;32;20034;-77
2021/06/10 13:22:08;;;;;;;5.87;4.85;;;;;;;;;;4430078;32;20069;-78
2021/06/10 13:24:42;;;;;;;5.72;4.55;;;;;;;;;;4417174;32;20038;-78
2021/06/10 13:27:34;;;;;;;5.68;4.35;;;;;;;;;;4414060;32;20182;-77
2021/06/10 13:30:02;;;;;;;4.57;3.87;;;;;;;;;;4421151;32;20060;-77
2021/06/10 13:32:29;;;;;;;7.03;4.82;;;;;;;;;;4416400;32;20050;-77
2021/06/10 13:35:24;;;;;;;6.78;4.55;;;;;;;;;;4419417;32;20073;-77
2021/06/10 13:37:43;;;;;;;4.30;3.42;;;;;;;;;;4424305;32;20026;-77
2021/06/10 13:40:09;;;;;;;7.10;4.12;;;;;;;;;;4426837;32;20539;-78
2021/06/10 13:42:35;;;;;;;5.82;3.92;;;;;;;;;;4437910;32;20037;-79
2021/06/10 13:45:02;;;;;;;4.78;4.00;;;;;;;;;;4410767;32;20046;-77
2021/06/10 13:47:28;;;;;;;4.90;3.83;;;;;;;;;;4434560;32;20037;-77
2021/06/10 13:49:54;;;;;;;6.70;4.00;;;;;;;;;;4425414;32;20037;-77
2021/06/10 13:52:20;;;;;;;6.65;4.35;;;;;;;;;;4432884;32;20136;-78
2021/06/10 13:54:47;;;;;;;4.85;4.45;;;;;;;;;;4419249;32;20100;-82
2021/06/10 13:57:13;;;;;;;5.53;4.03;;;;;;;;;;4420725;32;20072;-77
2021/06/10 13:59:39;;;;;;;6.00;3.75;;;;;;;;;;4426271;32;20095;-77
2021/06/10 14:02:06;;;;;;;6.55;4.40;;;;;;;;;;4418677;32;20465;-78
2021/06/10 14:04:32;;;;;;;4.82;3.90;;;;;;;;;;4421796;32;20069;-75
2021/06/10 14:07:00;;;;;;;7.57;4.68;;;;;;;;;;4419681;32;20539;-76
2021/06/10 14:09:27;;;;;;;6.37;4.50;;;;;;;;;;4427645;32;20078;-76
2021/06/10 14:11:53;;;;;;;5.40;4.03;;;;;;;;;;4425013;32;20716;-76
2021/06/10 14:14:19;;;;;;;5.20;3.80;;;;;;;;;;4419866;32;20397;-76
2021/06/10 14:16:46;;;;;;;4.28;3.87;;;;;;;;;;4419052;32;20045;-76
2021/06/10 14:19:18;;;;;;;6.43;5.30;;;;;;;;;;4425477;32;20033;-81
2021/06/10 14:21:44;;;;;;;5.70;5.12;;;;;;;;;;4424312;32;20557;-77
2021/06/10 14:24:13;;;;;;;6.22;4.43;;;;;;;;;;4420913;32;20060;-78
2021/06/10 14:26:39;;;;;;;26.30;6.95;;;;;;;;;;4424112;32;20127;-76
2021/06/10 14:29:59;;;;;;;7.32;4.68;;;;;;;;;;4425509;32;20099;-79
2021/06/10 14:34:41;;;;;;;5.05;4.32;;;;;;;;;;4423905;32;20437;-76
2021/06/10 14:37:07;;;;;;;6.75;4.60;;;;;;;;;;4421433;32;20121;-76
2021/06/10 14:39:33;;;;;;;5.95;4.12;;;;;;;;;;4419318;32;20574;-79
2021/06/10 14:41:59;;;;;;;3.70;3.40;;;;;;;;;;4422547;32;20464;-76
2021/06/10 14:44:25;;;;;;;6.72;3.72;;;;;;;;;;4422743;32;20095;-75
2021/06/10 14:46:52;;;;;;;7.87;4.30;;;;;;;;;;4423620;32;20030;-81
2021/06/10 14:49:18;;;;;;;5.47;3.70;;;;;;;;;;4419439;32;20101;-76